Time;durP1;ratioP1;P1;durP2;ratioP2;P2;SDS_P1;SDS_P2;PMS_P1;PMS_P2;Temp;Humidity;BMP_temperature;BMP_pressure;BME280_temperature;BME280_humidity;BME280_pressure;Samples;Min_cycle;Max_cycle;Signal;HPM_P1;HPM_P2
2021/07/08 00:00:50;;;;;;;2.67;1.45;;;;;;;18.02;66.77;100577.13;4951338;28;106271;-61
2021/07/08 00:03:16;;;;;;;3.72;1.42;;;;;;;18.01;66.85;100568.19;4951109;28;105986;-63
2021/07/08 00:05:43;;;;;;;1.92;1.33;;;;;;;18.01;66.87;100572.75;4951673;28;105860;-62
2021/07/08 00:08:13;;;;;;;2.47;1.60;;;;;;;17.99;66.97;100572.13;4951562;28;105963;-61
2021/07/08 00:10:47;;;;;;;2.40;1.60;;;;;;;17.99;66.94;100575.66;4950946;28;106885;-62
2021/07/08 00:13:17;;;;;;;2.70;1.50;;;;;;;17.98;67.15;100567.78;4951313;28;105960;-61
2021/07/08 00:15:44;;;;;;;3.17;1.55;;;;;;;17.97;67.23;100571.50;4951451;28;105946;-62
2021/07/08 00:18:11;;;;;;;3.30;1.80;;;;;;;17.96;67.29;100575.25;4951287;28;105769;-61
2021/07/08 00:20:39;;;;;;;3.65;1.58;;;;;;;17.95;67.58;100571.72;4950859;28;105961;-62
2021/07/08 00:23:05;;;;;;;2.58;1.73;;;;;;;17.92;67.42;100566.75;4951104;28;105923;-62
2021/07/08 00:25:31;;;;;;;2.70;1.77;;;;;;;17.92;67.67;100570.28;4951378;28;106213;-61
2021/07/08 00:27:57;;;;;;;5.03;1.80;;;;;;;17.91;67.52;100570.47;4951312;28;106043;-62
2021/07/08 00:30:23;;;;;;;1.92;1.45;;;;;;;17.90;67.73;100580.41;4950692;28;106028;-62
2021/07/08 00:32:50;;;;;;;4.13;1.48;;;;;;;17.89;67.90;100567.13;4950669;28;106074;-61
2021/07/08 00:35:16;;;;;;;3.63;1.60;;;;;;;17.84;67.97;100573.16;4951847;28;105943;-62
2021/07/08 00:37:41;;;;;;;3.30;1.58;;;;;;;17.86;68.02;100576.47;4951056;28;106332;-62
2021/07/08 00:40:10;;;;;;;2.63;1.42;;;;;;;17.86;67.98;100571.06;4950857;28;105856;-61
2021/07/08 00:42:37;;;;;;;3.15;1.73;;;;;;;17.82;68.17;100564.44;4950250;28;105979;-62
2021/07/08 00:45:05;;;;;;;3.42;1.73;;;;;;;17.81;68.37;100570.88;4951586;28;106152;-61
2021/07/08 00:47:31;;;;;;;2.65;1.70;;;;;;;17.80;68.55;100561.13;4950685;28;106222;-63
2021/07/08 00:49:56;;;;;;;5.10;1.85;;;;;;;17.79;68.87;100559.47;4950621;28;106032;-62
2021/07/08 00:52:22;;;;;;;2.78;1.90;;;;;;;17.78;69.07;100568.59;4949887;28;106631;-62
2021/07/08 00:54:47;;;;;;;3.97;2.22;;;;;;;17.74;69.26;100568.19;4951434;28;106342;-62
2021/07/08 00:57:12;;;;;;;2.33;1.77;;;;;;;17.73;69.49;100566.53;4949383;28;106411;-63
2021/07/08 00:59:46;;;;;;;3.42;1.75;;;;;;;17.72;69.70;100577.53;4950791;28;106002;-62
2021/07/08 01:02:13;;;;;;;3.13;2.00;;;;;;;17.71;69.88;100594.72;4950330;28;106115;-62
2021/07/08 01:04:41;;;;;;;3.83;2.15;;;;;;;17.73;70.16;100603.44;4951408;28;106007;-62
2021/07/08 01:07:07;;;;;;;2.42;1.88;;;;;;;17.71;70.08;100600.09;4950324;28;106227;-63
2021/07/08 01:09:32;;;;;;;4.65;1.70;;;;;;;17.68;70.33;100600.53;4950343;28;106840;-62
2021/07/08 01:11:57;;;;;;;3.72;1.73;;;;;;;17.66;70.48;100598.03;4950246;28;106019;-61
2021/07/08 01:14:23;;;;;;;4.80;1.70;;;;;;;17.66;70.57;100597.19;4950975;28;105991;-63
2021/07/08 01:16:48;;;;;;;2.92;1.80;;;;;;;17.64;70.61;100594.72;4950434;28;106246;-61
2021/07/08 01:19:14;;;;;;;5.22;1.95;;;;;;;17.63;70.62;100597.63;4950015;28;105772;-62
2021/07/08 01:21:39;;;;;;;2.92;2.00;;;;;;;17.63;70.67;100597.63;4950171;28;105749;-62
2021/07/08 01:24:05;;;;;;;3.35;2.13;;;;;;;17.62;70.90;100593.25;4950776;28;106055;-62
2021/07/08 01:26:31;;;;;;;4.60;1.90;;;;;;;17.59;71.09;100581.88;4950188;28;105910;-62
2021/07/08 01:28:57;;;;;;;2.90;2.30;;;;;;;17.62;71.08;100585.19;4949869;28;106007;-62
2021/07/08 01:31:24;;;;;;;5.78;2.13;;;;;;;17.61;71.31;100578.97;4949414;28;105872;-61
2021/07/08 01:33:50;;;;;;;4.10;1.90;;;;;;;17.59;71.23;100576.50;4950613;28;105817;-61
2021/07/08 01:36:16;;;;;;;3.45;2.15;;;;;;;17.61;71.41;100568.19;4949518;28;106019;-62
2021/07/08 01:38:42;;;;;;;3.78;1.98;;;;;;;17.62;71.34;100566.31;4949593;28;106280;-61
2021/07/08 01:41:08;;;;;;;3.55;2.00;;;;;;;17.64;71.68;100548.09;4949594;28;105883;-62
2021/07/08 01:43:38;;;;;;;3.95;1.83;;;;;;;17.66;71.82;100554.09;4950664;28;105746;-62
2021/07/08 01:46:15;;;;;;;2.58;2.05;;;;;;;17.67;71.70;100563.84;4950062;28;105860;-63
2021/07/08 01:48:43;;;;;;;3.95;2.40;;;;;;;17.68;71.96;100563.63;4949954;28;105962;-62
2021/07/08 01:51:23;;;;;;;4.43;2.05;;;;;;;17.70;71.73;100563.41;4949609;28;106371;-62
2021/07/08 01:53:48;;;;;;;;;;;;;;;17.69;71.78;100565.28;4951033;28;106157;-62
2021/07/08 01:56:14;;;;;;;4.95;2.33;;;;;;;17.69;71.48;100565.28;4948283;28;106133;-62
2021/07/08 01:58:39;;;;;;;3.83;2.20;;;;;;;17.68;71.98;100555.53;4949347;28;106033;-61
2021/07/08 02:01:05;;;;;;;3.35;2.25;;;;;;;17.69;71.92;100554.53;4949651;28;105829;-62
2021/07/08 02:03:30;;;;;;;4.32;2.30;;;;;;;17.69;72.04;100548.31;4950253;28;106360;-62
2021/07/08 02:05:55;;;;;;;5.50;3.00;;;;;;;17.67;72.12;100545.78;4949782;28;106467;-63
2021/07/08 02:08:21;;;;;;;5.78;2.42;;;;;;;17.68;72.14;100552.03;4949670;28;106101;-62
2021/07/08 02:10:46;;;;;;;5.68;2.55;;;;;;;17.68;72.09;100568.19;4949157;28;106210;-62
2021/07/08 02:13:11;;;;;;;5.28;2.10;;;;;;;17.68;72.25;100585.19;4950443;28;105985;-62
2021/07/08 02:15:37;;;;;;;4.40;2.80;;;;;;;17.69;72.24;100580.63;4949474;28;106216;-62
2021/07/08 02:18:04;;;;;;;4.63;2.50;;;;;;;17.70;72.32;100574.19;4949127;28;105959;-62
2021/07/08 02:20:29;;;;;;;3.53;2.50;;;;;;;17.68;72.28;100576.28;4949165;28;106562;-61
2021/07/08 02:22:55;;;;;;;4.03;2.60;;;;;;;17.64;72.09;100585.81;4949536;28;106135;-62
2021/07/08 02:25:20;;;;;;;3.97;2.55;;;;;;;17.56;72.06;100590.38;4949597;28;105975;-62
2021/07/08 02:27:46;;;;;;;4.90;2.30;;;;;;;17.48;72.34;100581.66;4949078;28;106538;-63
2021/07/08 02:30:18;;;;;;;6.50;2.83;;;;;;;17.38;72.24;100582.06;4948367;28;106066;-61
2021/07/08 02:32:44;;;;;;;4.63;2.80;;;;;;;17.33;72.90;100587.22;4950105;28;105860;-62
2021/07/08 02:35:11;;;;;;;4.65;2.60;;;;;;;17.29;72.94;100585.97;4949126;28;106172;-62
2021/07/08 02:37:38;;;;;;;3.70;2.30;;;;;;;17.23;72.99;100583.06;4948825;28;105836;-62
2021/07/08 02:40:06;;;;;;;5.43;3.17;;;;;;;17.19;73.28;100591.78;4948688;28;106159;-63
2021/07/08 02:42:32;;;;;;;4.13;2.90;;;;;;;17.12;73.32;100602.53;4949306;28;106529;-61
2021/07/08 02:44:57;;;;;;;3.33;2.65;;;;;;;17.05;73.74;100605.19;4948864;28;106178;-62
2021/07/08 02:47:23;;;;;;;4.63;2.97;;;;;;;16.99;73.65;100602.47;4949703;28;105879;-62
2021/07/08 02:49:48;;;;;;;4.78;3.05;;;;;;;16.90;73.85;100599.16;4952374;28;109326;-63
2021/07/08 02:52:13;;;;;;;5.47;3.17;;;;;;;16.86;73.81;100600.56;4953254;28;105894;-63
2021/07/08 02:54:39;;;;;;;4.82;2.90;;;;;;;16.82;74.31;100589.34;4952593;28;105853;-62
2021/07/08 02:57:05;;;;;;;4.05;3.03;;;;;;;16.82;74.32;100569.69;4952194;28;105961;-62
2021/07/08 02:59:30;;;;;;;4.72;2.80;;;;;;;16.84;74.77;100555.03;4952195;28;105947;-62
2021/07/08 03:01:55;;;;;;;5.50;3.67;;;;;;;16.87;74.70;100548.41;4953005;28;106298;-62
2021/07/08 03:04:20;;;;;;;6.82;3.65;;;;;;;16.90;74.99;100543.47;4950287;28;106414;-63
2021/07/08 03:06:46;;;;;;;7.22;3.13;;;;;;;16.95;75.03;100548.25;4952067;28;105761;-62
2021/07/08 03:09:11;;;;;;;5.03;3.20;;;;;;;16.98;75.18;100558.59;4951581;28;106397;-62
2021/07/08 03:11:36;;;;;;;5.35;2.78;;;;;;;17.01;75.06;100557.38;4952790;28;105960;-61
2021/07/08 03:14:02;;;;;;;4.78;3.45;;;;;;;17.02;74.97;100556.34;4951963;28;106118;-62
2021/07/08 03:16:28;;;;;;;5.57;3.72;;;;;;;17.05;75.08;100550.53;4951469;28;106830;-62
2021/07/08 03:18:53;;;;;;;6.25;3.58;;;;;;;17.06;75.31;100554.91;4951633;28;106205;-62
2021/07/08 03:21:19;;;;;;;5.07;3.70;;;;;;;17.09;75.33;100546.41;4952861;28;106178;-62
2021/07/08 03:23:44;;;;;;;4.80;3.30;;;;;;;17.11;75.28;100555.09;4952011;28;106240;-62
2021/07/08 03:26:09;;;;;;;5.50;3.45;;;;;;;17.15;75.54;100555.53;4952163;28;105908;-62
2021/07/08 03:28:35;;;;;;;5.53;3.45;;;;;;;17.17;75.54;100550.78;4951927;28;105893;-62
2021/07/08 03:31:00;;;;;;;4.97;3.00;;;;;;;17.17;75.40;100558.84;4952258;28;106066;-63
2021/07/08 03:33:25;;;;;;;4.18;2.92;;;;;;;17.17;75.66;100551.59;4951822;28;106208;-62
2021/07/08 03:35:51;;;;;;;4.55;2.67;;;;;;;17.17;75.69;100565.06;4951597;28;108772;-62
2021/07/08 03:38:16;;;;;;;8.13;3.45;;;;;;;17.17;75.46;100575.81;4951717;28;106305;-61
2021/07/08 03:40:42;;;;;;;4.10;2.92;;;;;;;17.17;75.70;100577.69;4951149;28;106014;-61
2021/07/08 03:43:07;;;;;;;4.38;3.17;;;;;;;17.16;75.59;100582.25;4951828;28;106552;-63
2021/07/08 03:45:33;;;;;;;5.65;3.53;;;;;;;17.18;75.69;100582.88;4951454;28;106341;-61
2021/07/08 03:47:58;;;;;;;6.03;3.63;;;;;;;17.14;75.43;100578.94;4951632;28;106561;-62
2021/07/08 03:50:24;;;;;;;6.03;3.55;;;;;;;17.08;75.68;100583.25;4952400;28;106424;-62
2021/07/08 03:52:50;;;;;;;8.98;4.20;;;;;;;17.05;75.66;100582.84;4951679;28;106309;-62
2021/07/08 03:55:18;;;;;;;4.63;3.45;;;;;;;17.04;76.09;100582.00;4951355;28;106171;-62
2021/07/08 03:57:52;;;;;;;4.47;3.40;;;;;;;17.05;76.15;100580.16;4951247;28;106376;-62
2021/07/08 04:00:25;;;;;;;5.43;3.60;;;;;;;17.07;76.24;100580.75;4951085;28;105857;-61
2021/07/08 04:02:51;;;;;;;6.10;3.92;;;;;;;17.04;75.92;100575.78;4951765;28;106142;-62
2021/07/08 04:05:16;;;;;;;6.53;4.05;;;;;;;17.05;76.33;100578.28;4951228;28;106045;-62
2021/07/08 04:07:41;;;;;;;6.40;3.30;;;;;;;17.10;76.54;100564.22;4951214;28;105793;-61
2021/07/08 04:10:07;;;;;;;5.75;3.88;;;;;;;17.15;76.46;100567.13;4951546;28;105928;-61
2021/07/08 04:12:33;;;;;;;6.18;3.70;;;;;;;17.20;76.59;100553.06;4951237;28;106161;-62
2021/07/08 04:14:58;;;;;;;4.28;3.28;;;;;;;17.24;77.00;100549.75;4950509;28;106004;-62
2021/07/08 04:17:24;;;;;;;6.88;3.17;;;;;;;17.32;76.26;100554.09;4950529;28;106135;-63
2021/07/08 04:19:49;;;;;;;6.25;3.40;;;;;;;17.37;76.39;100546.25;4951611;28;105973;-63
2021/07/08 04:22:14;;;;;;;11.05;3.80;;;;;;;17.43;76.36;100561.56;4950618;28;106011;-62
2021/07/08 04:24:40;;;;;;;12.57;10.30;;;;;;;17.50;76.23;100571.53;4950724;28;106119;-62
2021/07/08 04:27:05;;;;;;;8.50;3.90;;;;;;;17.55;76.31;100561.78;4950288;28;106022;-62
2021/07/08 04:29:31;;;;;;;4.10;3.47;;;;;;;17.62;76.13;100561.78;4951461;28;106236;-62
2021/07/08 04:31:56;;;;;;;4.63;3.45;;;;;;;17.67;75.90;100550.38;4950344;28;106225;-62
2021/07/08 04:34:21;;;;;;;9.20;4.38;;;;;;;17.72;75.86;100542.50;4950563;28;105946;-62
2021/07/08 04:36:47;;;;;;;8.82;3.70;;;;;;;17.74;75.84;100545.78;4950501;28;106300;-62
2021/07/08 04:39:12;;;;;;;7.32;3.90;;;;;;;17.77;75.72;100551.59;4951617;28;105977;-61
2021/07/08 04:41:38;;;;;;;6.90;4.20;;;;;;;17.79;75.64;100551.41;4951079;28;106204;-63
2021/07/08 04:44:03;;;;;;;6.32;5.05;;;;;;;17.80;75.61;100561.13;4950455;28;105801;-61
2021/07/08 04:46:29;;;;;;;9.15;5.80;;;;;;;17.81;75.63;100568.19;4950403;28;105836;-62
2021/07/08 04:48:56;;;;;;;12.13;6.22;;;;;;;17.81;75.49;100567.34;4949741;28;106197;-62
2021/07/08 04:51:21;;;;;;;11.35;5.85;;;;;;;17.84;75.55;100567.78;4950443;28;106208;-62
2021/07/08 04:53:47;;;;;;;8.82;5.60;;;;;;;17.90;75.56;100571.50;4950035;28;106026;-63
2021/07/08 04:56:12;;;;;;;8.43;5.93;;;;;;;17.96;75.45;100577.94;4950212;28;107119;-62
2021/07/08 04:58:37;;;;;;;9.18;6.70;;;;;;;18.00;75.31;100565.69;4951129;28;106401;-62
2021/07/08 05:01:03;;;;;;;9.55;5.93;;;;;;;18.03;75.07;100565.28;4950490;28;106157;-63
2021/07/08 05:03:28;;;;;;;10.32;5.85;;;;;;;18.05;74.97;100557.81;4950067;28;106964;-62
2021/07/08 05:05:53;;;;;;;10.02;6.40;;;;;;;18.08;74.86;100558.22;4950253;28;106275;-62
2021/07/08 05:08:19;;;;;;;12.40;7.50;;;;;;;18.12;74.79;100557.81;4951071;28;105844;-62
2021/07/08 05:10:44;;;;;;;13.15;7.70;;;;;;;18.15;74.75;100558.22;4947098;28;106334;-62
2021/07/08 05:13:09;;;;;;;13.05;8.10;;;;;;;18.17;74.70;100553.44;4950051;28;106360;-62
2021/07/08 05:15:36;;;;;;;9.95;6.90;;;;;;;18.20;74.38;100561.09;4949819;28;106018;-63
2021/07/08 05:18:02;;;;;;;12.20;7.22;;;;;;;18.24;74.35;100556.09;4950230;28;106014;-62
2021/07/08 05:20:27;;;;;;;11.05;7.18;;;;;;;18.26;74.38;100552.16;4950006;28;106108;-62
2021/07/08 05:23:05;;;;;;;13.48;7.63;;;;;;;18.31;74.35;100556.09;4948914;28;105955;-62
2021/07/08 05:25:30;;;;;;;12.00;7.85;;;;;;;18.37;74.32;100552.53;4949700;28;105994;-61
2021/07/08 05:27:56;;;;;;;12.18;7.43;;;;;;;18.46;74.31;100559.34;4950864;28;106182;-61
2021/07/08 05:30:22;;;;;;;13.93;8.20;;;;;;;18.56;74.07;100551.66;4949453;28;106156;-62
2021/07/08 05:32:47;;;;;;;15.93;8.40;;;;;;;18.68;73.97;100554.47;4949683;28;105983;-62
2021/07/08 05:35:13;;;;;;;13.10;7.80;;;;;;;18.79;73.64;100555.66;4949002;28;106084;-61
2021/07/08 05:37:39;;;;;;;11.90;7.78;;;;;;;18.87;73.34;100544.63;4950714;28;105867;-61
2021/07/08 05:40:06;;;;;;;11.95;7.38;;;;;;;18.98;73.42;100539.63;4949912;28;105920;-62
2021/07/08 05:42:31;;;;;;;15.63;8.07;;;;;;;19.13;73.41;100531.22;4949606;28;105982;-62
2021/07/08 05:44:57;;;;;;;13.38;9.50;;;;;;;19.27;73.12;100525.50;4949607;28;105952;-61
2021/07/08 05:47:23;;;;;;;11.50;7.75;;;;;;;19.43;72.93;100532.22;4950259;28;106024;-62
2021/07/08 05:49:48;;;;;;;15.45;8.98;;;;;;;19.54;72.37;100533.38;4949829;28;106224;-61
2021/07/08 05:52:14;;;;;;;15.15;9.15;;;;;;;19.62;71.94;100534.97;4949615;28;106003;-63
2021/07/08 05:54:39;;;;;;;12.88;8.10;;;;;;;19.69;71.64;100549.25;4949292;28;105980;-62
2021/07/08 05:57:04;;;;;;;15.70;8.85;;;;;;;19.74;71.65;100552.13;4950091;28;105999;-61
2021/07/08 05:59:30;;;;;;;12.70;8.57;;;;;;;19.83;71.48;100549.97;4949280;28;106132;-63
2021/07/08 06:01:56;;;;;;;10.43;7.90;;;;;;;19.99;71.67;100566.69;4948496;28;107037;-62
2021/07/08 06:04:22;;;;;;;11.93;8.05;;;;;;;20.10;71.22;100563.22;4939906;28;106045;-62
2021/07/08 06:06:47;;;;;;;15.27;10.02;;;;;;;20.15;70.56;100585.03;4938869;28;106235;-62
2021/07/08 06:09:13;;;;;;;13.93;8.70;;;;;;;20.18;70.58;100586.47;4938640;28;105917;-61
2021/07/08 06:11:38;;;;;;;13.60;7.78;;;;;;;20.18;70.11;100581.88;4960241;28;106119;-64
2021/07/08 06:14:04;;;;;;;11.98;8.68;;;;;;;20.21;70.21;100573.28;4944133;28;106078;-64
2021/07/08 06:16:29;;;;;;;13.05;7.85;;;;;;;20.28;69.99;100576.78;4935644;28;106081;-63
2021/07/08 06:18:54;;;;;;;10.77;6.75;;;;;;;20.40;70.08;100578.72;4932381;28;105902;-63
2021/07/08 06:21:20;;;;;;;11.82;7.50;;;;;;;20.55;69.80;100591.88;4929520;28;105902;-65
2021/07/08 06:23:45;;;;;;;10.63;7.65;;;;;;;20.63;69.52;100599.69;4928986;28;106055;-65
2021/07/08 06:26:11;;;;;;;13.57;8.18;;;;;;;20.60;69.17;100600.97;4930324;28;106050;-65
2021/07/08 06:28:37;;;;;;;15.07;7.70;;;;;;;20.56;68.82;100605.19;4929724;28;106361;-66
2021/07/08 06:31:03;;;;;;;11.68;7.38;;;;;;;20.49;68.46;100599.03;4928712;28;107048;-65
2021/07/08 06:33:30;;;;;;;12.02;7.70;;;;;;;20.57;68.67;100597.88;4930018;28;105904;-66
2021/07/08 06:35:55;;;;;;;15.27;9.75;;;;;;;20.75;68.73;100597.03;4930390;28;105802;-65
2021/07/08 06:38:20;;;;;;;11.65;8.85;;;;;;;20.98;68.70;100599.03;4929354;28;106169;-66
2021/07/08 06:40:46;;;;;;;14.93;8.05;;;;;;;21.21;68.16;100601.00;4929686;28;106442;-65
2021/07/08 06:43:11;;;;;;;14.45;8.60;;;;;;;21.37;67.75;100596.00;4929117;28;106501;-65
2021/07/08 06:45:37;;;;;;;15.48;9.23;;;;;;;21.55;67.53;100595.94;4930250;28;106142;-63
2021/07/08 06:48:04;;;;;;;12.68;9.48;;;;;;;21.68;66.72;100594.06;4929371;28;106245;-63
2021/07/08 06:50:33;;;;;;;17.13;10.05;;;;;;;21.72;66.27;100595.25;4929089;28;106047;-64
2021/07/08 06:53:00;;;;;;;12.20;8.17;;;;;;;21.75;66.18;100603.75;4926757;28;105930;-63
2021/07/08 06:55:25;;;;;;;12.65;8.07;;;;;;;21.67;65.83;100603.28;4929683;28;105873;-63
2021/07/08 06:57:51;;;;;;;12.00;7.53;;;;;;;21.62;65.86;100602.09;4929556;28;106227;-63
2021/07/08 07:00:25;;;;;;;11.32;7.50;;;;;;;21.63;65.59;100595.59;4925826;28;106086;-63
2021/07/08 07:02:55;;;;;;;11.98;7.78;;;;;;;21.68;65.46;100594.91;4926114;28;106571;-64
2021/07/08 07:05:21;;;;;;;;;;;;;;;21.75;65.68;100589.38;4927945;28;106561;-63
2021/07/08 07:07:47;;;;;;;11.15;8.52;;;;;;;21.87;65.22;100587.50;4927015;28;106217;-63
2021/07/08 07:10:13;;;;;;;10.07;7.03;;;;;;;22.08;65.23;100569.78;4926331;28;106568;-63
2021/07/08 07:12:46;;;;;;;10.40;7.78;;;;;;;22.34;65.10;100573.06;4925617;28;106053;-63
2021/07/08 07:15:13;;;;;;;21.08;9.38;;;;;;;22.61;64.49;100575.25;4925626;28;106609;-63
2021/07/08 07:17:39;;;;;;;16.38;9.82;;;;;;;22.80;64.16;100573.19;4927840;28;106006;-63
2021/07/08 07:20:07;;;;;;;13.02;8.65;;;;;;;22.92;63.34;100584.84;4928050;28;107881;-63
2021/07/08 07:22:32;;;;;;;9.55;7.88;;;;;;;22.80;62.48;100582.16;4928691;28;105824;-63
2021/07/08 07:24:58;;;;;;;12.68;8.57;;;;;;;22.75;62.45;100589.38;4929429;28;105851;-63
2021/07/08 07:27:24;;;;;;;14.00;8.07;;;;;;;22.55;62.27;100597.94;4928621;28;105999;-63
2021/07/08 07:29:49;;;;;;;9.65;7.88;;;;;;;22.35;62.37;100603.75;4928485;28;106454;-63
2021/07/08 07:32:14;;;;;;;11.00;7.32;;;;;;;22.18;62.77;100611.78;4928553;28;106123;-63
2021/07/08 07:34:40;;;;;;;9.52;8.05;;;;;;;22.02;62.65;100607.88;4930979;28;105993;-63
2021/07/08 07:37:06;;;;;;;11.25;7.90;;;;;;;21.84;62.68;100603.41;4931994;28;106245;-63
2021/07/08 07:39:31;;;;;;;9.07;7.10;;;;;;;21.70;62.76;100591.97;4931716;28;107243;-63
2021/07/08 07:41:56;;;;;;;11.88;7.80;;;;;;;21.68;63.46;100580.50;4931282;28;106013;-62
2021/07/08 07:44:22;;;;;;;9.95;8.07;;;;;;;21.74;63.56;100558.72;4932272;28;106059;-66
2021/07/08 07:46:47;;;;;;;13.65;8.30;;;;;;;21.83;63.43;100542.09;4931712;28;105859;-65
2021/07/08 07:49:13;;;;;;;18.15;9.75;;;;;;;21.92;63.37;100546.91;4931585;28;109707;-63
2021/07/08 07:51:39;;;;;;;13.80;10.13;;;;;;;22.01;63.17;100541.13;4931110;28;106063;-64
2021/07/08 07:54:04;;;;;;;16.45;9.48;;;;;;;22.14;63.16;100532.72;4932199;28;105904;-64
2021/07/08 07:56:29;;;;;;;14.57;8.57;;;;;;;22.19;62.72;100534.75;4932074;28;105734;-64
2021/07/08 07:58:55;;;;;;;10.13;7.60;;;;;;;22.17;62.65;100553.13;4930562;28;105953;-64
2021/07/08 08:01:20;;;;;;;11.98;7.57;;;;;;;22.10;62.40;100561.41;4931912;28;105913;-65
2021/07/08 08:03:45;;;;;;;11.27;8.65;;;;;;;22.09;62.63;100574.16;4930666;28;105961;-65
2021/07/08 08:08:55;;;;;;;11.45;8.18;;;;;;;22.18;62.59;100569.16;4929545;28;106716;-64
2021/07/08 08:11:21;;;;;;;12.25;7.68;;;;;;;22.31;62.49;100562.69;4930002;28;106053;-65
2021/07/08 08:13:46;;;;;;;11.73;7.75;;;;;;;22.38;62.22;100549.00;4930753;28;106341;-64
2021/07/08 08:16:12;;;;;;;10.52;6.43;;;;;;;22.50;62.04;100544.38;4929654;28;106306;-64
2021/07/08 08:18:37;;;;;;;9.73;6.88;;;;;;;22.67;61.74;100563.41;4930104;28;107395;-65
2021/07/08 08:21:03;;;;;;;9.02;6.88;;;;;;;22.73;61.24;100557.03;4929795;28;106100;-65
2021/07/08 08:23:28;;;;;;;11.60;7.07;;;;;;;22.77;61.16;100563.63;4930381;28;106114;-66
2021/07/08 08:25:53;;;;;;;8.55;6.85;;;;;;;22.79;60.97;100566.09;4928763;28;106291;-65
2021/07/08 08:28:19;;;;;;;8.95;6.43;;;;;;;22.82;61.12;100574.56;4928049;28;106105;-65
2021/07/08 08:30:47;;;;;;;8.98;6.45;;;;;;;22.77;60.65;100581.81;4929674;28;106079;-65
2021/07/08 08:33:13;;;;;;;9.95;6.55;;;;;;;22.78;60.71;100584.28;4930490;28;106121;-64
2021/07/08 08:35:39;;;;;;;11.18;7.95;;;;;;;22.85;61.03;100589.56;4930235;28;106211;-65
2021/07/08 08:38:05;;;;;;;15.48;9.25;;;;;;;22.89;60.54;100596.16;4929593;28;105956;-64
2021/07/08 08:40:30;;;;;;;13.38;8.45;;;;;;;22.82;60.45;100598.19;4928213;28;107811;-65
2021/07/08 08:42:56;;;;;;;7.60;6.20;;;;;;;22.82;60.39;100592.78;4940834;28;106108;-67
2021/07/08 08:45:23;;;;;;;6.50;5.45;;;;;;;22.98;60.79;100578.41;4950116;28;106205;-65
2021/07/08 08:47:57;;;;;;;6.65;5.95;;;;;;;23.26;60.31;100575.94;4950319;28;105976;-65
2021/07/08 08:50:24;;;;;;;7.82;5.70;;;;;;;23.42;59.94;100590.63;4949766;28;106054;-65
2021/07/08 08:52:50;;;;;;;9.50;6.20;;;;;;;23.50;59.36;100582.06;4951073;28;105891;-63
2021/07/08 08:55:15;;;;;;;10.23;5.75;;;;;;;23.52;59.70;100598.94;4950443;28;106169;-65
2021/07/08 08:57:41;;;;;;;11.88;5.47;;;;;;;23.53;59.47;100599.78;4950335;28;105950;-66
2021/07/08 09:00:30;;;;;;;8.40;6.10;;;;;;;23.61;59.38;100593.94;4950023;28;106037;-66
2021/07/08 09:03:00;;;;;;;8.63;6.50;;;;;;;23.55;59.00;100603.06;4947673;28;106011;-67
2021/07/08 09:05:25;;;;;;;11.18;6.55;;;;;;;23.50;58.89;100603.81;4950378;28;106392;-70
2021/07/08 09:07:50;;;;;;;10.23;6.60;;;;;;;23.40;58.64;100600.91;4950328;28;106498;-67
2021/07/08 09:10:16;;;;;;;9.05;6.90;;;;;;;23.35;58.79;100598.09;4949965;28;107301;-67
2021/07/08 09:12:42;;;;;;;8.50;6.63;;;;;;;23.45;59.26;100603.72;4950863;28;106199;-65
2021/07/08 09:15:21;;;;;;;12.40;7.80;;;;;;;23.60;58.94;100606.69;4949894;28;106199;-65
2021/07/08 09:17:47;;;;;;;8.60;6.15;;;;;;;23.72;58.83;100606.59;4949519;28;106039;-64
2021/07/08 09:20:18;;;;;;;9.55;5.22;;;;;;;23.83;58.83;100600.25;4949553;28;106115;-64
2021/07/08 09:22:47;;;;;;;8.98;5.95;;;;;;;23.93;58.23;100606.94;4949739;28;106006;-65
2021/07/08 09:25:18;;;;;;;9.50;6.10;;;;;;;24.03;57.75;100600.81;4947467;28;106314;-65
2021/07/08 09:27:45;;;;;;;6.50;5.80;;;;;;;23.97;57.81;100613.53;4947570;28;106553;-64
2021/07/08 09:30:23;;;;;;;9.05;5.85;;;;;;;23.90;57.46;100608.25;4947140;28;107778;-65
2021/07/08 09:32:48;;;;;;;9.75;6.25;;;;;;;23.82;57.18;100611.38;4947740;28;106075;-64
2021/07/08 09:35:14;;;;;;;10.32;5.63;;;;;;;23.66;57.23;100605.69;4947607;28;106281;-63
2021/07/08 09:37:41;;;;;;;9.63;6.10;;;;;;;23.73;57.66;100601.97;4947282;28;106365;-65
2021/07/08 09:40:08;;;;;;;8.45;5.70;;;;;;;23.95;57.31;100602.91;4949238;28;106237;-64
2021/07/08 09:42:35;;;;;;;6.97;6.18;;;;;;;24.21;57.63;100592.38;4949669;28;105941;-64
2021/07/08 09:45:05;;;;;;;9.80;6.45;;;;;;;24.26;56.42;100599.78;4949776;28;106245;-64
2021/07/08 09:47:31;;;;;;;;;;;;;;;24.39;56.86;100593.97;4949917;28;105967;-64
2021/07/08 09:49:56;;;;;;;7.30;5.28;;;;;;;24.73;56.62;100584.88;4949797;28;105848;-64
2021/07/08 09:52:22;;;;;;;9.85;5.32;;;;;;;25.34;56.54;100585.53;4948719;28;106148;-64
2021/07/08 09:57:40;;;;;;;7.55;4.70;;;;;;;26.82;54.79;100573.03;4945548;28;106038;-66
2021/07/08 10:00:25;;;;;;;8.18;4.50;;;;;;;27.43;52.62;100568.72;4949328;28;105980;-64
2021/07/08 10:02:52;;;;;;;6.70;4.97;;;;;;;27.85;51.27;100572.25;4947121;28;106414;-64
2021/07/08 10:05:19;;;;;;;5.35;4.85;;;;;;;28.07;49.84;100574.69;4947310;28;106450;-65
2021/07/08 10:07:46;;;;;;;8.50;5.97;;;;;;;27.91;48.75;100576.59;4946732;28;105923;-64
2021/07/08 10:10:12;;;;;;;12.90;5.70;;;;;;;27.81;49.33;100579.38;4946888;28;106258;-65
2021/07/08 10:12:38;;;;;;;9.23;5.38;;;;;;;27.76;48.87;100582.94;4947607;28;106147;-65
2021/07/08 10:15:06;;;;;;;8.15;5.40;;;;;;;27.79;48.84;100573.34;4946675;28;106165;-65
2021/07/08 10:17:34;;;;;;;14.48;5.10;;;;;;;27.99;48.93;100567.81;4946375;28;106110;-65
2021/07/08 10:20:01;;;;;;;8.35;5.60;;;;;;;28.42;48.21;100561.13;4948746;28;106073;-64
2021/07/08 10:22:27;;;;;;;9.30;5.10;;;;;;;28.52;47.78;100552.88;4949966;28;105946;-65
2021/07/08 10:24:53;;;;;;;9.88;4.57;;;;;;;28.99;47.81;100546.03;4949099;28;106620;-65
2021/07/08 10:27:19;;;;;;;7.50;4.78;;;;;;;29.31;45.98;100541.97;4949188;28;105860;-65
2021/07/08 10:29:47;;;;;;;6.82;5.40;;;;;;;29.42;45.80;100544.63;4948357;28;106410;-65
2021/07/08 10:32:14;;;;;;;10.90;7.38;;;;;;;29.50;45.25;100544.00;4949607;28;105943;-64
2021/07/08 10:34:47;;;;;;;9.32;5.80;;;;;;;28.93;44.88;100546.34;4948634;28;106148;-65
2021/07/08 10:37:25;;;;;;;11.02;5.55;;;;;;;28.30;45.97;100543.09;4948700;28;106229;-65
2021/07/08 10:39:51;;;;;;;7.40;5.25;;;;;;;27.80;46.50;100544.88;4948138;28;106571;-65
2021/07/08 10:42:47;;;;;;;5.90;4.78;;;;;;;27.34;47.32;100541.06;4949099;28;106225;-67
2021/07/08 10:45:21;;;;;;;6.30;5.38;;;;;;;27.26;48.10;100522.47;4948105;28;106305;-67
2021/07/08 10:47:47;;;;;;;6.35;5.40;;;;;;;27.43;48.29;100505.00;4948882;28;105961;-67
2021/07/08 10:50:46;;;;;;;7.40;5.32;;;;;;;27.62;47.69;100522.47;4948193;28;107090;-66
2021/07/08 10:53:18;;;;;;;10.37;5.53;;;;;;;27.49;47.76;100537.53;4945181;28;106492;-68
2021/07/08 10:55:51;;;;;;;8.13;6.00;;;;;;;27.34;47.85;100537.53;4948428;28;106190;-66
2021/07/08 10:58:43;;;;;;;8.70;5.60;;;;;;;27.23;48.45;100533.97;4948599;28;105968;-67
2021/07/08 11:01:30;;;;;;;5.65;5.10;;;;;;;27.12;48.35;100545.97;4948214;28;106525;-65
2021/07/08 11:03:58;;;;;;;8.52;6.22;;;;;;;26.92;48.60;100539.41;4944389;28;105926;-65
2021/07/08 11:06:24;;;;;;;7.38;5.75;;;;;;;26.65;48.61;100529.47;4948290;28;106239;-65
2021/07/08 11:08:56;;;;;;;9.75;5.93;;;;;;;26.51;48.95;100520.16;4949804;28;106671;-66
2021/07/08 11:11:24;;;;;;;9.20;5.97;;;;;;;26.76;49.61;100513.97;4951510;28;106119;-66
2021/07/08 11:13:57;;;;;;;6.63;5.55;;;;;;;26.98;49.14;100505.53;4952561;28;105840;-65
2021/07/08 11:16:47;;;;;;;7.43;5.10;;;;;;;27.54;49.45;100501.13;4950309;28;106227;-65
2021/07/08 11:19:13;;;;;;;8.23;5.63;;;;;;;28.17;48.53;100503.44;4946347;28;106537;-65